createdAt,value
2019-05-07T00:00:33.018Z,21.03
2019-05-07T00:03:03.284Z,21.00
2019-05-07T00:05:33.174Z,20.98
2019-05-07T00:08:03.037Z,20.98
2019-05-07T00:10:33.190Z,20.97
2019-05-07T00:13:02.586Z,20.94
2019-05-07T00:15:32.773Z,20.92
2019-05-07T00:18:03.155Z,20.87
2019-05-07T00:20:32.828Z,20.86
2019-05-07T00:23:02.918Z,20.82
2019-05-07T00:25:32.791Z,20.80
2019-05-07T00:28:02.888Z,20.78
2019-05-07T00:30:33.140Z,20.77
2019-05-07T00:33:02.866Z,20.74
2019-05-07T00:35:33.581Z,20.70
2019-05-07T00:38:06.876Z,20.70
2019-05-07T00:40:37.441Z,20.66
2019-05-07T00:43:08.264Z,20.67
2019-05-07T00:45:44.570Z,20.65
2019-05-07T00:48:13.786Z,20.61
2019-05-07T00:50:44.355Z,20.58
2019-05-07T00:53:13.547Z,20.59
2019-05-07T00:55:42.734Z,20.56
2019-05-07T00:58:13.237Z,20.57
2019-05-07T01:00:42.618Z,20.54
2019-05-07T01:03:12.825Z,20.54
2019-05-07T01:05:43.237Z,20.52
2019-05-07T01:08:13.287Z,20.51
2019-05-07T01:10:42.270Z,20.50
2019-05-07T01:13:12.539Z,20.48
2019-05-07T01:15:43.046Z,20.47
2019-05-07T01:18:13.118Z,20.48
2019-05-07T01:20:42.470Z,20.43
2019-05-07T01:23:13.385Z,20.42
2019-05-07T01:25:43.072Z,20.40
2019-05-07T01:28:13.186Z,20.39
2019-05-07T01:30:43.559Z,20.38
2019-05-07T01:33:30.490Z,20.37
2019-05-07T01:36:07.221Z,20.34
2019-05-07T01:38:36.179Z,20.30
2019-05-07T01:41:05.103Z,20.29
2019-05-07T01:43:34.051Z,20.28
2019-05-07T01:46:03.281Z,20.24
2019-05-07T01:48:32.562Z,20.23
2019-05-07T01:51:03.439Z,20.25
2019-05-07T01:53:33.824Z,20.22
2019-05-07T01:56:03.425Z,20.21
2019-05-07T01:58:33.295Z,20.19
2019-05-07T02:01:02.941Z,20.18
2019-05-07T02:03:50.254Z,20.16
2019-05-07T02:06:32.837Z,20.13
2019-05-07T02:09:10.907Z,20.12
2019-05-07T02:11:43.858Z,20.11
2019-05-07T02:14:13.671Z,20.09
2019-05-07T02:16:42.719Z,20.06
2019-05-07T02:19:12.631Z,20.07
2019-05-07T02:21:42.328Z,20.04
2019-05-07T02:24:12.642Z,20.03
2019-05-07T02:26:42.696Z,20.02
2019-05-07T02:29:13.089Z,19.99
2019-05-07T02:31:44.079Z,19.97
2019-05-07T02:34:14.034Z,19.98
2019-05-07T02:36:43.633Z,19.96
2019-05-07T02:39:23.751Z,19.93
2019-05-07T02:41:53.921Z,19.93
2019-05-07T02:44:23.203Z,19.90
2019-05-07T02:46:56.344Z,19.89
2019-05-07T02:49:32.626Z,19.88
2019-05-07T02:52:18.427Z,19.86
2019-05-07T02:54:58.156Z,19.81
2019-05-07T02:57:29.239Z,19.78
2019-05-07T02:59:58.504Z,19.76
2019-05-07T03:02:27.784Z,19.78
2019-05-07T03:04:56.727Z,19.79
2019-05-07T03:07:25.951Z,19.80
2019-05-07T03:09:54.937Z,19.79
2019-05-07T03:12:24.199Z,19.81
2019-05-07T03:14:53.965Z,19.81
2019-05-07T03:17:24.815Z,19.80
2019-05-07T03:19:55.039Z,19.79
2019-05-07T03:22:24.259Z,19.77
2019-05-07T03:24:55.112Z,19.79
2019-05-07T03:27:24.053Z,19.79
2019-05-07T03:29:54.875Z,19.76
2019-05-07T03:32:39.822Z,19.77
2019-05-07T03:35:27.802Z,19.74
2019-05-07T03:37:57.421Z,19.74
2019-05-07T03:40:26.672Z,19.77
2019-05-07T03:42:55.888Z,19.80
2019-05-07T03:45:26.475Z,19.83
2019-05-07T03:48:03.716Z,19.88
2019-05-07T03:50:33.815Z,19.86
2019-05-07T03:53:03.257Z,19.93
2019-05-07T03:55:33.183Z,20.18
2019-05-07T03:58:03.102Z,20.49
2019-05-07T04:00:33.402Z,20.76
2019-05-07T04:03:03.651Z,21.08
2019-05-07T04:05:34.289Z,21.44
2019-05-07T04:08:03.791Z,21.83
2019-05-07T04:10:34.148Z,22.31
2019-05-07T04:13:04.469Z,22.75
2019-05-07T04:15:34.054Z,23.19
2019-05-07T04:18:03.837Z,23.58
2019-05-07T04:20:33.522Z,23.97
2019-05-07T04:23:04.293Z,24.33
2019-05-07T04:25:43.437Z,24.69
2019-05-07T04:28:16.367Z,25.13
2019-05-07T04:30:45.398Z,25.43
2019-05-07T04:33:18.794Z,25.80
2019-05-07T04:35:49.451Z,26.14
2019-05-07T04:38:18.460Z,26.44
2019-05-07T04:40:47.417Z,26.87
2019-05-07T04:43:16.359Z,27.37
2019-05-07T04:45:45.618Z,27.83
2019-05-07T04:48:14.644Z,28.13
2019-05-07T04:50:47.658Z,28.51
2019-05-07T04:53:16.577Z,28.82
2019-05-07T04:55:45.875Z,29.11
2019-05-07T04:58:15.094Z,29.34
2019-05-07T05:00:44.792Z,29.47
2019-05-07T05:03:18.396Z,29.51
2019-05-07T05:05:47.684Z,29.11
2019-05-07T05:08:16.622Z,28.77
2019-05-07T05:10:45.561Z,28.55
2019-05-07T05:13:14.878Z,29.07
2019-05-07T05:15:43.820Z,29.39
2019-05-07T05:18:12.970Z,30.01
2019-05-07T05:20:51.807Z,30.17
2019-05-07T15:24:46.781Z,22.27
2019-05-07T15:27:19.344Z,22.68
2019-05-07T15:29:48.597Z,23.09
2019-05-07T15:32:18.206Z,23.41
2019-05-07T15:34:47.620Z,23.71
2019-05-07T15:37:18.388Z,23.93
2019-05-07T15:39:47.487Z,24.06
2019-05-07T15:42:16.435Z,24.30
2019-05-07T15:44:45.397Z,24.50
2019-05-07T15:47:15.967Z,24.67
2019-05-07T15:49:45.887Z,24.82
2019-05-07T15:52:16.468Z,24.91
2019-05-07T15:54:45.689Z,25.06
2019-05-07T15:57:22.410Z,25.15
2019-05-07T15:59:53.107Z,25.20
2019-05-07T16:02:32.034Z,25.27
2019-05-07T16:05:02.197Z,25.28
2019-05-07T16:07:32.784Z,25.33
2019-05-07T16:10:03.287Z,25.36
2019-05-07T16:12:32.315Z,25.43
2019-05-07T16:15:03.152Z,25.45
2019-05-07T16:17:52.081Z,25.52
2019-05-07T16:20:22.716Z,25.53
2019-05-07T16:22:55.122Z,25.56
2019-05-07T16:25:23.766Z,25.59
2019-05-07T16:27:52.820Z,25.63
2019-05-07T16:30:22.860Z,25.65
2019-05-07T16:32:55.218Z,25.69
2019-05-07T16:35:22.850Z,25.73
2019-05-07T16:37:52.180Z,25.75
2019-05-07T16:40:22.942Z,25.75
2019-05-07T16:42:52.538Z,25.78
2019-05-07T16:45:21.599Z,25.79
2019-05-07T16:47:52.142Z,25.84
2019-05-07T16:50:22.381Z,25.89
2019-05-07T16:52:52.450Z,25.92
2019-05-07T16:55:23.371Z,25.96
